Jaskul, Russia
Current Conditions -  °F | °C
As of 11:00 AM on Saturday 29 Nov 2014 (Local Time) from URWI Reporting Station
Overcast Overcast  
Wind Chill: 12°   Ceiling: 2200
Heat Index: 23°   Visibility: 6mi
Dew Point: 23°   Wind: 11mph
Humidity: 100%   Direction: 90°E
Pressure: 30.39"   Gusts: NA
Location:  46.18°N, 45.35°E
Report Text: URWI 290800Z 09005MPS 9999 OVC022 M05/M05 Q1029 NOSIG
Loading
Personal Weather Stations






























Interactive Weather Map New forecast layout! Learn more

10-Day Weather Forecast

Advertisements
Track Severe Weather on mobile